createdAt,value
2023-05-10T00:00:25.262Z,98029.69
2023-05-10T00:02:52.188Z,98030.59
2023-05-10T00:05:18.900Z,98021.03
2023-05-10T00:07:48.332Z,98022.09
2023-05-10T00:10:15.220Z,98014.34
2023-05-10T00:12:44.681Z,98023.97
2023-05-10T00:15:12.134Z,98016.97
2023-05-10T00:17:40.647Z,98013.53
2023-05-10T00:20:07.832Z,98016.19
2023-05-10T00:22:34.504Z,98018.88
2023-05-10T00:25:01.132Z,98016.34
2023-05-10T00:27:27.751Z,98014.72
2023-05-10T00:29:54.476Z,98022.44
2023-05-10T00:32:21.770Z,98016.41
2023-05-10T00:34:48.590Z,98015.50
2023-05-10T00:37:15.225Z,98015.53
2023-05-10T00:39:41.760Z,98015.59
2023-05-10T00:42:08.427Z,98008.63
2023-05-10T00:44:35.060Z,98004.34
2023-05-10T00:47:01.814Z,98007.97
2023-05-10T00:49:29.477Z,98013.19
2023-05-10T00:51:56.504Z,98003.72
2023-05-10T00:54:23.198Z,98008.03
2023-05-10T00:56:50.447Z,98003.75
2023-05-10T00:59:18.832Z,98004.53
2023-05-10T01:01:46.830Z,98004.69
2023-05-10T01:04:14.467Z,98009.13
2023-05-10T01:06:42.531Z,98011.78
2023-05-10T01:09:09.610Z,98011.06
2023-05-10T01:11:37.810Z,98011.13
2023-05-10T01:14:05.113Z,98011.97
2023-05-10T01:16:43.398Z,98005.00
2023-05-10T01:19:30.609Z,98003.25
2023-05-10T01:22:00.457Z,98009.34
2023-05-10T01:24:30.210Z,98001.69
2023-05-10T01:27:18.090Z,98006.16
2023-05-10T01:30:21.855Z,98004.44
2023-05-10T01:33:10.283Z,97993.16
2023-05-10T01:35:42.780Z,97993.13
2023-05-10T01:38:20.265Z,97999.16
2023-05-10T01:41:04.757Z,97993.09
2023-05-10T01:43:57.159Z,97994.88
2023-05-10T01:46:38.275Z,97989.78
2023-05-10T01:49:12.752Z,97994.06
2023-05-10T01:51:45.934Z,97996.72
2023-05-10T01:54:14.644Z,97987.22
2023-05-10T01:56:43.117Z,97981.09
2023-05-10T01:59:16.677Z,97977.56
2023-05-10T02:01:45.188Z,97983.72
2023-05-10T02:04:15.462Z,97982.94
2023-05-10T02:06:43.602Z,97984.66
2023-05-10T02:09:13.009Z,97994.22
2023-05-10T02:11:42.699Z,97987.22
2023-05-10T02:14:12.118Z,97989.91
2023-05-10T02:16:40.493Z,97984.63
2023-05-10T02:19:09.605Z,97994.13
2023-05-10T02:21:36.977Z,97983.75
2023-05-10T02:24:05.340Z,97991.66
2023-05-10T02:26:35.146Z,97979.47
2023-05-10T02:29:04.449Z,97981.22
2023-05-10T02:31:36.315Z,97982.84
2023-05-10T02:34:03.966Z,97975.88
2023-05-10T02:36:31.221Z,97982.78
2023-05-10T02:38:59.180Z,97976.78
2023-05-10T02:41:27.513Z,97969.84
2023-05-10T02:43:58.353Z,97977.56
2023-05-10T02:46:25.141Z,97976.63
2023-05-10T02:48:51.836Z,97974.94
2023-05-10T02:51:20.233Z,97976.66
2023-05-10T02:53:49.295Z,97974.88
2023-05-10T02:56:24.763Z,97973.13
2023-05-10T02:58:51.452Z,97972.28
2023-05-10T03:01:18.246Z,97972.19
2023-05-10T03:03:44.906Z,97969.59
2023-05-10T03:06:11.565Z,97973.19
2023-05-10T03:08:38.619Z,97968.94
2023-05-10T03:11:33.451Z,97973.41
2023-05-10T03:14:18.721Z,97970.66
2023-05-10T03:16:58.543Z,97969.84
2023-05-10T03:19:37.211Z,97973.34
2023-05-10T03:22:08.680Z,97975.19
2023-05-10T03:24:37.801Z,97975.09
2023-05-10T03:27:05.489Z,97970.72
2023-05-10T03:29:33.150Z,97971.44
2023-05-10T03:32:02.557Z,97973.94
2023-05-10T03:34:32.536Z,97972.19
2023-05-10T03:36:59.259Z,97969.47
2023-05-10T03:39:25.996Z,97968.56
2023-05-10T03:41:52.584Z,97965.81
2023-05-10T03:44:19.343Z,97972.88
2023-05-10T03:46:46.109Z,97970.25
2023-05-10T03:49:13.064Z,97971.97
2023-05-10T03:51:39.819Z,97970.97
2023-05-10T03:54:06.490Z,97960.53
2023-05-10T03:56:33.594Z,97973.59
2023-05-10T03:59:00.419Z,97979.75
2023-05-10T04:01:27.075Z,97970.97
2023-05-10T04:03:53.836Z,97974.41
2023-05-10T04:06:20.601Z,97974.44
2023-05-10T04:08:47.256Z,97972.63
2023-05-10T04:11:14.743Z,97974.34
2023-05-10T04:13:41.359Z,97968.16
2023-05-10T04:16:08.084Z,97968.97
2023-05-10T04:18:34.707Z,97968.00
2023-05-10T04:21:01.831Z,97966.31
2023-05-10T04:23:28.872Z,97966.16
2023-05-10T04:26:02.782Z,97967.81
2023-05-10T04:28:29.479Z,97971.44
2023-05-10T04:31:09.641Z,97969.56
2023-05-10T04:33:36.922Z,97966.91
2023-05-10T04:36:04.714Z,97969.44
2023-05-10T04:38:31.538Z,97966.94
2023-05-10T04:41:12.160Z,97966.78
2023-05-10T04:43:39.614Z,97962.19
2023-05-10T04:46:07.140Z,97962.88
2023-05-10T04:48:34.058Z,97960.22
2023-05-10T04:51:00.789Z,97966.31
2023-05-10T04:53:27.679Z,97967.88
2023-05-10T04:55:54.311Z,97964.34
2023-05-10T04:58:23.255Z,97964.34
2023-05-10T05:00:50.025Z,97968.47
2023-05-10T05:03:16.814Z,97963.34
2023-05-10T05:05:44.325Z,97957.88
2023-05-10T05:08:10.946Z,97955.03
2023-05-10T05:10:37.676Z,97953.97
2023-05-10T05:13:04.267Z,97956.38
2023-05-10T05:15:31.790Z,97957.19
2023-05-10T05:18:01.364Z,97949.94
2023-05-10T05:20:28.004Z,97936.50
2023-05-10T05:22:54.664Z,97937.97
2023-05-10T05:25:21.290Z,97938.66
2023-05-10T05:27:47.935Z,97942.06
2023-05-10T05:30:14.683Z,97937.53
2023-05-10T05:32:41.429Z,97936.97
2023-05-10T05:35:08.553Z,97948.13
2023-05-10T05:37:35.313Z,97937.53
2023-05-10T05:40:02.821Z,97940.75
2023-05-10T05:42:29.452Z,97936.19
2023-05-10T05:44:56.041Z,97935.84
2023-05-10T05:47:22.792Z,97925.91
2023-05-10T05:49:49.457Z,97945.91
2023-05-10T05:52:16.215Z,97937.53
2023-05-10T05:54:42.858Z,97934.06
2023-05-10T05:57:10.013Z,97933.94
2023-05-10T05:59:36.811Z,97931.84
2023-05-10T06:02:03.516Z,97927.16
2023-05-10T06:04:30.174Z,97921.38
2023-05-10T06:06:56.817Z,97918.44
2023-05-10T06:09:25.547Z,97921.75
2023-05-10T06:11:52.185Z,97925.81
2023-05-10T06:14:21.040Z,97927.53
2023-05-10T06:16:47.790Z,97918.63
2023-05-10T06:19:14.414Z,97915.50
2023-05-10T06:21:41.029Z,97929.09
2023-05-10T06:24:07.890Z,97915.44
2023-05-10T06:26:34.630Z,97923.31
2023-05-10T06:29:01.208Z,97922.97
2023-05-10T06:31:27.915Z,97912.94
2023-05-10T06:33:56.638Z,97909.84
2023-05-10T06:36:27.588Z,97909.53
2023-05-10T06:38:54.410Z,97905.44
2023-05-10T06:41:23.974Z,97907.59
2023-05-10T06:43:51.277Z,97899.91
2023-05-10T06:46:20.626Z,97896.72
2023-05-10T06:48:47.382Z,97901.53
2023-05-10T06:51:13.918Z,97889.50
2023-05-10T06:53:43.273Z,97895.06
2023-05-10T06:56:09.730Z,97896.44
2023-05-10T06:58:36.196Z,97895.91
2023-05-10T07:01:03.283Z,97894.00
2023-05-10T07:03:33.130Z,97898.06
2023-05-10T07:06:07.810Z,97888.63
2023-05-10T07:08:37.487Z,97882.88
2023-05-10T07:11:05.183Z,97884.63
2023-05-10T07:13:35.315Z,97877.84
2023-05-10T07:16:03.078Z,97879.75
2023-05-10T07:18:29.808Z,97868.44
2023-05-10T07:20:57.639Z,97873.69
2023-05-10T07:23:24.310Z,97882.47
2023-05-10T07:25:53.269Z,97875.31
2023-05-10T07:28:20.093Z,97876.78
2023-05-10T07:30:46.817Z,97874.56
2023-05-10T07:33:14.582Z,97869.31
2023-05-10T07:35:41.081Z,97868.00
2023-05-10T07:38:07.652Z,97864.97
2023-05-10T07:40:34.251Z,97874.56
2023-05-10T07:43:03.848Z,97863.78
2023-05-10T07:45:30.409Z,97867.13
2023-05-10T07:47:57.019Z,97865.38
2023-05-10T07:50:24.352Z,97865.97
2023-05-10T07:52:51.060Z,97861.22
2023-05-10T07:55:19.283Z,97862.97
2023-05-10T07:57:45.847Z,97860.56
2023-05-10T08:00:14.384Z,97861.78
2023-05-10T08:02:41.636Z,97863.06
2023-05-10T08:05:08.302Z,97862.78
2023-05-10T08:07:34.856Z,97847.84
2023-05-10T08:10:01.407Z,97853.34
2023-05-10T08:12:27.833Z,97860.19
2023-05-10T08:14:54.402Z,97849.19
2023-05-10T08:17:22.103Z,97855.75
2023-05-10T08:19:51.291Z,97849.69
2023-05-10T08:22:18.035Z,97847.59
2023-05-10T08:24:47.295Z,97858.72
2023-05-10T08:27:13.750Z,97854.41
2023-05-10T08:29:49.462Z,97846.88
2023-05-10T08:32:16.755Z,97856.97
2023-05-10T08:34:43.302Z,97858.25
2023-05-10T08:37:09.784Z,97855.31
2023-05-10T08:39:36.723Z,97856.38
2023-05-10T08:42:04.940Z,97858.75
2023-05-10T08:44:40.192Z,97862.38
2023-05-10T08:47:08.153Z,97854.06
2023-05-10T08:49:35.814Z,97853.47
2023-05-10T08:52:06.959Z,97861.34
2023-05-10T08:54:34.331Z,97854.19
2023-05-10T08:57:01.375Z,97860.97
2023-05-10T08:59:28.331Z,97853.19
2023-05-10T09:01:56.861Z,97848.88
2023-05-10T09:04:23.991Z,97853.66
2023-05-10T09:06:50.874Z,97850.59
2023-05-10T09:09:18.256Z,97850.31
2023-05-10T09:11:45.701Z,97842.59
2023-05-10T09:14:13.634Z,97840.06
2023-05-10T09:16:41.073Z,97843.69
2023-05-10T09:19:10.723Z,97833.66
2023-05-10T09:21:40.197Z,97843.19
2023-05-10T09:24:08.203Z,97840.78
2023-05-10T09:26:45.294Z,97839.50
2023-05-10T09:29:23.284Z,97833.53
2023-05-10T09:31:55.788Z,57215.63
2023-05-10T09:34:29.553Z,57215.63
2023-05-10T09:37:01.769Z,57215.63
2023-05-10T09:39:33.112Z,97833.53
2023-05-10T09:42:00.790Z,97828.66
2023-05-10T09:44:27.648Z,97819.13
2023-05-10T09:46:54.196Z,97810.56
2023-05-10T09:51:48.749Z,97825.69
2023-05-10T09:54:16.689Z,97816.22
2023-05-10T09:56:43.558Z,97811.13
2023-05-10T09:59:13.587Z,97814.28
2023-05-10T10:01:40.407Z,97812.59
2023-05-10T10:04:08.414Z,97813.75
2023-05-10T10:06:41.052Z,97814.66
2023-05-10T10:09:08.034Z,97807.16
2023-05-10T10:11:39.136Z,97802.84
2023-05-10T10:14:06.345Z,97804.34
2023-05-10T10:16:33.397Z,97801.31
2023-05-10T10:19:00.069Z,97804.59
2023-05-10T10:21:26.725Z,97797.66
2023-05-10T10:23:54.115Z,97798.25
2023-05-10T10:26:22.142Z,97796.66
2023-05-10T10:29:00.574Z,97799.78
2023-05-10T10:31:35.861Z,97795.31
2023-05-10T10:34:03.061Z,97795.25
2023-05-10T10:36:30.097Z,97792.72
2023-05-10T10:39:00.276Z,97783.91
2023-05-10T10:41:32.059Z,97782.19
2023-05-10T10:44:31.874Z,97779.13
2023-05-10T10:47:15.433Z,97771.88
2023-05-10T10:49:44.852Z,97784.06
2023-05-10T10:52:16.917Z,97783.47
2023-05-10T10:54:51.118Z,97786.81
2023-05-10T10:57:19.518Z,97773.66
2023-05-10T10:59:46.595Z,97780.81
2023-05-10T11:02:43.138Z,97783.84
2023-05-10T11:05:25.749Z,97769.06
2023-05-10T11:07:53.640Z,97777.22
2023-05-10T11:10:23.698Z,97769.19
2023-05-10T11:13:11.492Z,97770.91
2023-05-10T11:15:41.657Z,97767.03
2023-05-10T11:18:18.884Z,97763.06
2023-05-10T11:20:47.734Z,97766.53
2023-05-10T11:23:16.842Z,97765.66
2023-05-10T11:25:45.072Z,97769.53
2023-05-10T11:28:14.427Z,97770.34
2023-05-10T11:30:42.025Z,97764.88
2023-05-10T11:33:09.378Z,97756.63
2023-05-10T11:35:43.424Z,97756.34
2023-05-10T11:38:10.971Z,97762.22
2023-05-10T11:40:38.408Z,97756.69
2023-05-10T11:43:05.480Z,97762.34
2023-05-10T11:45:35.395Z,97759.22
2023-05-10T11:48:02.793Z,97772.63
2023-05-10T11:50:29.705Z,97765.06
2023-05-10T11:52:56.886Z,97760.69
2023-05-10T11:55:23.577Z,97759.78
2023-05-10T11:57:52.881Z,97749.38
2023-05-10T12:00:19.691Z,97759.72
2023-05-10T12:02:46.676Z,97765.75
2023-05-10T12:05:13.257Z,97758.38
2023-05-10T12:07:39.780Z,97755.38
2023-05-10T12:10:16.607Z,97754.50
2023-05-10T12:12:44.523Z,97760.44
2023-05-10T12:15:24.551Z,97757.09
2023-05-10T12:17:51.545Z,97748.31
2023-05-10T12:20:20.025Z,97752.34
2023-05-10T12:22:54.321Z,97756.81
2023-05-10T12:25:23.176Z,97754.75
2023-05-10T12:27:54.685Z,97757.66
2023-05-10T12:30:24.612Z,97754.78
2023-05-10T12:32:52.553Z,97760.44
2023-05-10T12:35:22.906Z,97754.34
2023-05-10T12:37:52.083Z,97753.59
2023-05-10T12:40:18.786Z,97747.22
2023-05-10T12:42:46.090Z,97748.34
2023-05-10T12:45:12.615Z,97747.22
2023-05-10T12:47:40.789Z,97746.75
2023-05-10T12:50:09.031Z,97742.75
2023-05-10T12:52:35.770Z,97744.88
2023-05-10T12:55:02.653Z,97737.25
2023-05-10T12:57:29.356Z,97738.22
2023-05-10T12:59:56.165Z,97734.28
2023-05-10T13:02:24.111Z,97730.84
2023-05-10T13:04:51.185Z,97724.00
2023-05-10T13:07:17.859Z,97726.53
2023-05-10T13:09:44.466Z,97727.06
2023-05-10T13:12:11.259Z,97717.88
2023-05-10T13:14:37.978Z,97723.00
2023-05-10T13:17:04.535Z,97710.22
2023-05-10T13:19:31.205Z,97715.47
2023-05-10T13:21:57.837Z,97710.22
2023-05-10T13:24:24.373Z,97703.69
2023-05-10T13:26:50.957Z,97702.13
2023-05-10T13:29:19.225Z,97704.03
2023-05-10T13:31:46.039Z,97702.00
2023-05-10T13:34:12.552Z,97703.59
2023-05-10T13:36:39.178Z,97700.63
2023-05-10T13:39:06.408Z,97696.44
2023-05-10T13:41:33.131Z,97694.06
2023-05-10T13:43:59.670Z,97694.44
2023-05-10T13:46:26.152Z,97696.75
2023-05-10T13:48:52.755Z,97698.78
2023-05-10T13:51:19.305Z,97695.38
2023-05-10T13:53:46.000Z,97691.31
2023-05-10T13:56:12.589Z,97694.84
2023-05-10T13:58:39.173Z,97694.00
2023-05-10T14:01:06.012Z,97692.59
2023-05-10T14:03:33.658Z,97691.97
2023-05-10T14:06:00.405Z,97693.56
2023-05-10T14:08:28.138Z,97696.25
2023-05-10T14:10:54.853Z,97693.66
2023-05-10T14:13:21.397Z,97688.03
2023-05-10T14:15:47.957Z,97689.16
2023-05-10T14:18:14.454Z,97691.63
2023-05-10T14:20:40.969Z,97693.66
2023-05-10T14:23:08.405Z,97699.72
2023-05-10T14:25:36.813Z,97683.66
2023-05-10T14:28:03.379Z,97687.13
2023-05-10T14:30:30.027Z,97689.34
2023-05-10T14:32:56.681Z,97684.94
2023-05-10T14:35:23.507Z,97684.84
2023-05-10T14:37:50.431Z,97691.41
2023-05-10T14:40:18.232Z,97696.47
2023-05-10T14:42:45.114Z,97689.16
2023-05-10T14:45:12.176Z,97686.72
2023-05-10T14:47:38.703Z,97686.41
2023-05-10T14:50:05.504Z,97689.09
2023-05-10T14:52:34.268Z,97679.06
2023-05-10T14:55:02.415Z,97689.06
2023-05-10T14:57:31.066Z,97690.78
2023-05-10T14:59:58.082Z,97688.25
2023-05-10T15:02:25.154Z,97682.25
2023-05-10T15:04:52.491Z,97684.88
2023-05-10T15:07:19.443Z,97684.06
2023-05-10T15:09:46.205Z,97676.91
2023-05-10T15:12:12.687Z,97680.84
2023-05-10T15:14:39.259Z,97678.31
2023-05-10T15:17:07.400Z,97682.44
2023-05-10T15:19:34.411Z,97683.19
2023-05-10T15:22:00.918Z,97681.16
2023-05-10T15:24:27.507Z,97676.25
2023-05-10T15:26:54.994Z,97682.44
2023-05-10T15:29:21.777Z,97681.81
2023-05-10T15:31:49.085Z,97677.41
2023-05-10T15:34:15.902Z,97683.41
2023-05-10T15:36:42.526Z,97678.81
2023-05-10T15:39:10.220Z,97673.59
2023-05-10T15:41:38.000Z,97675.72
2023-05-10T15:44:04.515Z,97670.50
2023-05-10T15:46:31.467Z,97679.81
2023-05-10T15:48:59.202Z,97677.41
2023-05-10T15:51:28.593Z,97671.94
2023-05-10T15:54:05.924Z,97681.47
2023-05-10T15:56:37.025Z,97684.13
2023-05-10T15:59:04.078Z,97683.28
2023-05-10T16:01:31.421Z,97680.06
2023-05-10T16:03:58.178Z,97681.34
2023-05-10T16:06:24.697Z,97681.81
2023-05-10T16:08:52.915Z,97679.13
2023-05-10T16:11:21.641Z,97680.69
2023-05-10T16:13:48.386Z,97677.63
2023-05-10T16:16:14.926Z,97679.09
2023-05-10T16:18:41.842Z,97679.09
2023-05-10T16:21:08.388Z,97679.03
2023-05-10T16:23:34.998Z,97678.00
2023-05-10T16:26:01.480Z,97683.59
2023-05-10T16:28:28.099Z,97679.53
2023-05-10T16:30:54.852Z,97682.38
2023-05-10T16:33:21.505Z,97678.78
2023-05-10T16:35:48.145Z,97686.75
2023-05-10T16:38:15.059Z,97692.75
2023-05-10T16:40:41.603Z,97689.22
2023-05-10T16:43:08.259Z,97689.91
2023-05-10T16:45:35.096Z,97698.00
2023-05-10T16:48:01.860Z,97706.56
2023-05-10T16:50:28.393Z,97701.22
2023-05-10T16:52:55.053Z,97703.28
2023-05-10T16:55:22.901Z,97715.13
2023-05-10T16:57:50.775Z,97704.75
2023-05-10T17:00:17.474Z,97705.13
2023-05-10T17:02:44.037Z,97710.16
2023-05-10T17:05:10.544Z,97713.84
2023-05-10T17:07:37.033Z,97714.97
2023-05-10T17:10:03.619Z,97706.22
2023-05-10T17:12:30.464Z,97718.13
2023-05-10T17:14:57.564Z,97715.16
2023-05-10T17:17:24.153Z,97713.28
2023-05-10T17:19:51.197Z,97719.28
2023-05-10T17:22:17.733Z,97718.28
2023-05-10T17:24:45.124Z,97719.31
2023-05-10T17:27:11.700Z,97720.78
2023-05-10T17:29:38.311Z,97724.44
2023-05-10T17:32:05.265Z,97725.19
2023-05-10T17:34:31.799Z,97732.72
2023-05-10T17:37:00.567Z,97725.56
2023-05-10T17:39:27.120Z,97729.31
2023-05-10T17:41:53.676Z,97730.41
2023-05-10T17:44:20.281Z,97732.16
2023-05-10T17:46:46.871Z,97730.44
2023-05-10T17:49:13.431Z,97737.06
2023-05-10T17:51:41.552Z,97731.91
2023-05-10T17:54:08.084Z,97737.75
2023-05-10T17:56:34.569Z,97748.19
2023-05-10T17:59:01.059Z,97751.38
2023-05-10T18:01:27.756Z,97754.38
2023-05-10T18:03:54.359Z,97754.44
2023-05-10T18:06:20.901Z,97757.47
2023-05-10T18:08:47.441Z,97765.22
2023-05-10T18:11:13.919Z,97761.84
2023-05-10T18:13:40.577Z,97771.06
2023-05-10T18:16:08.945Z,97777.00
2023-05-10T18:18:35.437Z,97783.63
2023-05-10T18:21:02.223Z,97781.16
2023-05-10T18:23:28.810Z,97785.91
2023-05-10T18:25:55.308Z,97791.41
2023-05-10T18:28:21.873Z,97795.16
2023-05-10T18:30:48.465Z,97798.03
2023-05-10T18:33:14.953Z,97799.34
2023-05-10T18:35:41.744Z,97800.59
2023-05-10T18:38:09.830Z,97805.25
2023-05-10T18:40:36.738Z,97798.16
2023-05-10T18:43:03.571Z,97809.72
2023-05-10T18:45:30.372Z,97812.38
2023-05-10T18:47:57.182Z,97817.25
2023-05-10T18:50:23.729Z,97820.09
2023-05-10T18:52:50.715Z,97820.03
2023-05-10T18:55:17.470Z,97814.81
2023-05-10T18:57:45.208Z,97824.38
2023-05-10T19:00:12.431Z,97824.31
2023-05-10T19:02:39.770Z,97828.16
2023-05-10T19:05:06.803Z,97819.72
2023-05-10T19:07:33.830Z,97830.81
2023-05-10T19:10:00.418Z,97830.81
2023-05-10T19:12:26.899Z,97832.44
2023-05-10T19:14:53.425Z,97832.56
2023-05-10T19:17:20.234Z,97830.88
2023-05-10T19:19:46.690Z,97834.78
2023-05-10T19:22:13.731Z,97838.47
2023-05-10T19:24:40.336Z,97836.56
2023-05-10T19:27:06.904Z,97835.63
2023-05-10T19:29:33.406Z,97839.09
2023-05-10T19:32:00.850Z,97846.75
2023-05-10T19:34:27.503Z,97852.06
2023-05-10T19:36:54.624Z,97852.88
2023-05-10T19:39:21.273Z,97854.28
2023-05-10T19:41:50.023Z,97855.00
2023-05-10T19:44:16.599Z,97850.69
2023-05-10T19:46:43.177Z,97851.91
2023-05-10T19:49:09.709Z,97855.16
2023-05-10T19:51:36.206Z,97854.41
2023-05-10T19:54:02.684Z,97855.75
2023-05-10T19:56:29.730Z,97859.06
2023-05-10T19:58:56.336Z,97862.84
2023-05-10T20:01:22.955Z,97868.47
2023-05-10T20:03:49.544Z,97866.41
2023-05-10T20:06:16.130Z,97871.00
2023-05-10T20:08:42.700Z,97865.25
2023-05-10T20:11:09.230Z,97864.44
2023-05-10T20:13:35.804Z,97866.44
2023-05-10T20:16:03.827Z,97865.34
2023-05-10T20:18:30.676Z,97865.91
2023-05-10T20:20:58.402Z,97869.81
2023-05-10T20:23:24.910Z,97862.16
2023-05-10T20:25:51.580Z,97870.16
2023-05-10T20:28:21.997Z,97859.94
2023-05-10T20:30:50.603Z,97872.53
2023-05-10T20:33:19.148Z,97871.50
2023-05-10T20:35:45.709Z,97874.72
2023-05-10T20:38:12.151Z,97867.75
2023-05-10T20:40:38.625Z,97874.03
2023-05-10T20:43:06.370Z,97874.78
2023-05-10T20:45:32.878Z,97882.22
2023-05-10T20:47:59.477Z,97872.44
2023-05-10T20:50:25.993Z,97882.31
2023-05-10T20:52:52.606Z,97877.13
2023-05-10T20:55:19.595Z,97885.06
2023-05-10T20:57:47.119Z,97878.16
2023-05-10T21:00:14.296Z,97882.34
2023-05-10T21:02:44.723Z,97877.94
2023-05-10T21:05:11.283Z,97882.31
2023-05-10T21:07:39.044Z,97873.06
2023-05-10T21:10:07.439Z,97883.03
2023-05-10T21:12:34.025Z,97891.66
2023-05-10T21:15:00.508Z,97883.94
2023-05-10T21:17:27.379Z,97881.03
2023-05-10T21:19:54.207Z,97882.06
2023-05-10T21:22:20.715Z,97878.56
2023-05-10T21:24:47.410Z,97874.09
2023-05-10T21:27:13.961Z,97878.47
2023-05-10T21:29:40.574Z,97877.81
2023-05-10T21:32:07.074Z,97883.19
2023-05-10T21:34:33.818Z,97884.88
2023-05-10T21:37:00.679Z,97882.50
2023-05-10T21:39:27.161Z,97878.34
2023-05-10T21:41:53.736Z,97880.91
2023-05-10T21:44:20.252Z,97882.34
2023-05-10T21:46:46.773Z,97887.41
2023-05-10T21:49:13.335Z,97881.38
2023-05-10T21:51:39.799Z,97888.28
2023-05-10T21:54:06.326Z,97886.91
2023-05-10T21:56:32.856Z,97877.81
2023-05-10T21:58:59.309Z,97877.13
2023-05-10T22:01:26.479Z,97889.41
2023-05-10T22:03:53.092Z,97886.84
2023-05-10T22:06:19.707Z,97881.56
2023-05-10T22:08:46.187Z,97885.06
2023-05-10T22:11:12.770Z,97888.97
2023-05-10T22:13:39.224Z,97882.00
2023-05-10T22:16:06.930Z,97876.97
2023-05-10T22:18:33.407Z,97886.66
2023-05-10T22:21:00.004Z,97883.25
2023-05-10T22:23:26.548Z,97879.84
2023-05-10T22:25:53.114Z,97875.59
2023-05-10T22:28:20.273Z,97883.44
2023-05-10T22:30:48.280Z,97877.41
2023-05-10T22:33:14.839Z,97873.69
2023-05-10T22:35:41.266Z,97884.47
2023-05-10T22:38:07.780Z,97880.19
2023-05-10T22:40:34.391Z,97880.09
2023-05-10T22:43:01.094Z,97882.97
2023-05-10T22:45:27.808Z,97885.38
2023-05-10T22:47:54.605Z,97878.63
2023-05-10T22:50:21.618Z,97879.78
2023-05-10T22:52:48.361Z,97884.50
2023-05-10T22:55:15.070Z,97876.78
2023-05-10T22:57:41.647Z,97882.41
2023-05-10T23:00:08.380Z,97885.91
2023-05-10T23:02:34.976Z,97883.19
2023-05-10T23:05:01.547Z,97880.56
2023-05-10T23:07:28.170Z,97882.56
2023-05-10T23:09:54.630Z,97885.47
2023-05-10T23:12:21.170Z,97886.63
2023-05-10T23:14:47.695Z,97886.63
2023-05-10T23:17:14.250Z,97877.88
2023-05-10T23:19:40.805Z,97882.34
2023-05-10T23:22:07.727Z,97884.59
2023-05-10T23:24:34.308Z,97882.06
2023-05-10T23:27:00.754Z,97874.47
2023-05-10T23:29:27.274Z,97878.22
2023-05-10T23:31:53.876Z,97876.53
2023-05-10T23:34:20.421Z,97877.59
2023-05-10T23:36:46.993Z,97878.72
2023-05-10T23:39:13.590Z,97879.84
2023-05-10T23:41:40.069Z,97879.91
2023-05-10T23:44:06.688Z,97877.88
2023-05-10T23:46:33.167Z,97874.19
2023-05-10T23:48:59.705Z,97875.03
2023-05-10T23:51:26.234Z,97869.63
2023-05-10T23:53:53.985Z,97870.63
2023-05-10T23:56:20.521Z,97878.00
2023-05-10T23:58:47.010Z,97876.66
